Flight Track Log - Related Links

Times and Time Zones

All times are in EDT time to prevent confusion due to time zone crossing. See the SWA2770 flight status page for this flight to view local times or setup timezone preferences in your user account.

Time Position Orientation Groundspeed Altitude Reporting Facility
EDT Latitude Longitude Course Direction KTS MPH feet Rate Location/Type
Wed 07:04:42 AM 32.8333 -96.8333 128° Southeast 154 177 1,400  Level Dallas / Fort Worth TRACON
Wed 07:05:54 AM 32.8000 -96.7833 128° Southeast 205 236 6,200 3,341 Climbing Dallas / Fort Worth TRACON
Wed 07:07:29 AM 32.7003 -96.8086 192° South 281 323 10,700 3,213 Climbing Fort Worth Center
Wed 07:08:29 AM 32.6192 -96.8583 207° Southwest 340 391 14,500 3,950 Climbing Fort Worth Center
Wed 07:09:29 AM 32.5297 -96.9108 206° Southwest 365 420 18,600 3,950 Climbing Fort Worth Center
Wed 07:10:29 AM 32.4275 -96.9753 208° Southwest 375 432 22,400 3,400 Climbing Fort Worth Center
Wed 07:11:29 AM 32.3275 -97.0347 207° Southwest 388 447 25,400 3,300 Climbing Fort Worth Center
Wed 07:12:29 AM 32.2169 -97.0647 193° South 398 458 29,000 2,300 Climbing Fort Worth Center
Wed 07:13:29 AM 32.1064 -97.0675 181° South 398 458 30,000 500 Climbing Fort Worth Center
Wed 07:14:29 AM 31.9958 -97.0706 181° South 398 458 30,000  Level Fort Worth Center
Wed 07:15:29 AM 31.8850 -97.0733 181° South 398 458 30,000  Level Fort Worth Center
Wed 07:16:29 AM 31.7828 -97.0736 180° South 404 465 30,000  Level Fort Worth Center
Wed 07:17:30 AM 31.6722 -97.0786 182° South 408 470 30,000  Level Houston Center
Wed 07:18:31 AM 31.5586 -97.0825 182° South 405 466 30,000  Level Houston Center
Wed 07:19:32 AM 31.4481 -97.1150 194° South 407 468 30,000  Level Houston Center
Wed 07:20:33 AM 31.3214 -97.1656 199° South 408 470 30,000  Level Houston Center
Wed 07:21:34 AM 31.2139 -97.2081 199° South 405 466 30,000  Level Houston Center
Wed 07:22:35 AM 31.1067 -97.2497 198° South 404 465 30,000  Level Houston Center
Wed 07:23:36 AM 31.0092 -97.2864 198° South 409 471 30,000  Level Houston Center
Wed 07:24:37 AM 30.8903 -97.3342 199° South 422 486 30,000  Level Houston Center
Wed 07:25:37 AM 30.7822 -97.3744 198° South 412 474 30,000  Level Houston Center
Wed 07:26:38 AM 30.6731 -97.4169 199° South 409 471 30,000 -443 Level Houston Center
Wed 07:27:39 AM 30.5644 -97.4594 199° South 408 470 29,100 -1,869 Descending Houston Center
Wed 07:28:40 AM 30.4558 -97.5011 198° South 407 468 26,200 -2,557 Descending Houston Center
Wed 07:29:41 AM 30.3494 -97.5486 201° Southwest 408 470 23,900 -2,262 Descending Houston Center
Wed 07:30:42 AM 30.2553 -97.6158 212° Southwest 394 453 21,600 -2,164 Descending Houston Center
Wed 07:31:43 AM 30.1639 -97.6792 211° Southwest 381 438 19,500 -2,016 Descending Houston Center
Wed 07:32:44 AM 30.0661 -97.7447 210° Southwest 365 420 17,500 -2,164 Descending Houston Center
Wed 07:33:45 AM 29.9822 -97.8036 211° Southwest 354 407 15,100 -2,213 Descending Houston Center
Wed 07:34:46 AM 29.8942 -97.8667 212° Southwest 347 399 13,000 -1,525 Descending Houston Center
Wed 07:35:47 AM 29.8553 -97.9617 245° Southwest 326 375 12,000 -1,279 Descending Houston Center
Wed 07:36:48 AM 29.8169 -98.0525 244° Southwest 316 364 10,400 -1,279 Descending Houston Center
Wed 07:37:49 AM 29.7806 -98.1381 244° Southwest 300 345 9,400 -1,033 Descending Houston Center
Wed 07:38:50 AM 29.7528 -98.2331 251° West 295 339 8,300 -1,033 Descending Houston Center
Wed 07:39:51 AM 29.7508 -98.3267 269° West 296 341 7,300 -1,033 Descending Houston Center
Wed 07:40:52 AM 29.7472 -98.4156 267° West 282 325 6,200 -1,024 Descending Houston Center
Wed 07:41:54 AM 29.7431 -98.5072 267° West 263 303 5,200 -492 Descending Houston Center
Wed 07:42:54 AM 29.7383 -98.5869 266° West 253 291 5,200 -49 Level Houston Center
Wed 07:43:56 AM 29.6939 -98.6381 225° Southwest 228 262 5,100 -590 Descending Houston Center
Wed 07:44:56 AM 29.6486 -98.6242 165° South 198 228 4,000 -1,041 Descending Houston Center
Wed 07:45:57 AM 29.6150 -98.5778 130° Southeast 185 213 3,000 -942 Descending Houston Center
Wed 07:46:57 AM 29.5844 -98.5406 133° Southeast 160 184 2,100 -793 Descending Houston Center
Wed 07:47:58 AM 29.5603 -98.5075 130° Southeast 116 133 1,400 -581 Descending Houston Center
Wed 07:49:01 AM 29.5386 -98.4778 130° Southeast 120 138 900 -476 Descending Houston Center
Wed 07:51:00 AM 29.5340 -98.4691 221° Southwest  Level Estimated

Login

Don't have an account? Register now (free) for customized features, flight alerts, and more!